createdAt,value
2023-05-12T00:01:48.377Z,61.31
2023-05-12T00:04:15.083Z,61.38
2023-05-12T00:06:41.798Z,61.70
2023-05-12T00:09:08.390Z,61.36
2023-05-12T00:11:36.127Z,61.29
2023-05-12T00:14:02.752Z,61.11
2023-05-12T00:16:32.017Z,61.29
2023-05-12T00:18:58.787Z,61.73
2023-05-12T00:21:25.429Z,61.53
2023-05-12T00:23:52.170Z,61.70
2023-05-12T00:26:18.808Z,61.77
2023-05-12T00:28:47.637Z,61.23
2023-05-12T00:31:14.464Z,61.12
2023-05-12T00:33:43.318Z,61.28
2023-05-12T00:36:12.905Z,61.35
2023-05-12T00:38:39.866Z,61.09
2023-05-12T00:41:09.014Z,61.30
2023-05-12T00:43:36.124Z,61.67
2023-05-12T00:46:02.858Z,61.43
2023-05-12T00:48:31.876Z,61.27
2023-05-12T00:51:00.842Z,61.23
2023-05-12T00:53:32.674Z,60.48
2023-05-12T00:56:05.060Z,60.76
2023-05-12T00:58:32.254Z,60.32
2023-05-12T01:01:02.067Z,60.47
2023-05-12T01:03:29.466Z,60.55
2023-05-12T01:05:59.372Z,60.55
2023-05-12T01:08:26.137Z,60.89
2023-05-12T01:10:55.241Z,60.87
2023-05-12T01:13:21.896Z,61.04
2023-05-12T01:15:50.731Z,60.95
2023-05-12T01:18:20.473Z,60.66
2023-05-12T01:20:50.558Z,60.69
2023-05-12T01:23:19.083Z,60.92
2023-05-12T01:25:46.516Z,61.14
2023-05-12T01:28:15.534Z,61.17
2023-05-12T01:30:42.212Z,61.23
2023-05-12T01:33:10.383Z,61.42
2023-05-12T01:35:37.662Z,61.29
2023-05-12T01:38:04.399Z,61.59
2023-05-12T01:40:34.551Z,61.97
2023-05-12T01:43:01.797Z,61.72
2023-05-12T01:45:32.136Z,61.95
2023-05-12T01:47:59.113Z,61.70
2023-05-12T01:50:25.791Z,62.07
2023-05-12T01:52:52.438Z,62.23
2023-05-12T01:55:20.125Z,62.46
2023-05-12T01:57:51.878Z,62.47
2023-05-12T02:00:22.218Z,62.45
2023-05-12T02:02:51.726Z,62.77
2023-05-12T02:05:20.712Z,62.76
2023-05-12T02:07:50.327Z,62.80
2023-05-12T02:10:18.009Z,63.09
2023-05-12T02:12:47.733Z,63.01
2023-05-12T02:15:14.525Z,62.98
2023-05-12T02:17:46.199Z,63.07
2023-05-12T02:20:14.780Z,63.50
2023-05-12T02:22:42.939Z,63.82
2023-05-12T02:25:09.562Z,64.08
2023-05-12T02:27:38.988Z,63.78
2023-05-12T02:30:06.692Z,63.76
2023-05-12T02:32:38.829Z,63.88
2023-05-12T02:35:07.598Z,63.84
2023-05-12T02:37:36.270Z,63.70
2023-05-12T02:40:08.383Z,64.15
2023-05-12T02:42:36.255Z,64.04
2023-05-12T02:45:05.463Z,64.32
2023-05-12T02:47:34.491Z,64.56
2023-05-12T02:50:03.585Z,64.61
2023-05-12T02:52:34.224Z,64.72
2023-05-12T02:55:01.387Z,64.73
2023-05-12T02:57:34.077Z,64.81
2023-05-12T03:00:06.743Z,65.41
2023-05-12T03:02:40.097Z,64.95
2023-05-12T03:05:08.524Z,65.03
2023-05-12T03:07:38.497Z,65.10
2023-05-12T03:10:06.048Z,65.40
2023-05-12T03:12:32.737Z,65.51
2023-05-12T03:15:02.334Z,65.53
2023-05-12T03:17:28.950Z,65.55
2023-05-12T03:19:58.062Z,65.52
2023-05-12T03:22:24.835Z,65.60
2023-05-12T03:24:56.338Z,65.37
2023-05-12T03:27:23.159Z,65.69
2023-05-12T03:29:50.251Z,66.00
2023-05-12T03:32:16.873Z,65.45
2023-05-12T03:34:46.102Z,65.79
2023-05-12T03:37:12.771Z,65.62
2023-05-12T03:39:39.556Z,65.85
2023-05-12T03:42:06.425Z,65.68
2023-05-12T03:44:36.199Z,65.88
2023-05-12T03:47:05.827Z,66.03
2023-05-12T03:49:36.182Z,66.12
2023-05-12T03:52:03.230Z,66.20
2023-05-12T03:54:32.470Z,66.71
2023-05-12T03:57:01.666Z,66.42
2023-05-12T03:59:30.974Z,66.51
2023-05-12T04:01:57.736Z,66.36
2023-05-12T04:04:24.589Z,66.56
2023-05-12T04:06:51.250Z,66.46
2023-05-12T04:09:19.010Z,66.49
2023-05-12T04:11:48.633Z,66.66
2023-05-12T04:14:20.440Z,66.46
2023-05-12T04:16:50.080Z,66.87
2023-05-12T04:19:17.141Z,66.86
2023-05-12T04:21:43.975Z,66.61
2023-05-12T04:24:10.694Z,66.56
2023-05-12T04:26:37.708Z,66.75
2023-05-12T04:29:06.788Z,66.60
2023-05-12T04:31:33.922Z,65.94
2023-05-12T04:34:02.829Z,66.37
2023-05-12T04:36:31.516Z,66.33
2023-05-12T04:38:58.492Z,66.41
2023-05-12T04:41:25.615Z,66.26
2023-05-12T04:46:22.411Z,66.17
2023-05-12T04:48:51.981Z,66.20
2023-05-12T04:51:18.653Z,66.14
2023-05-12T04:53:45.915Z,66.08
2023-05-12T04:56:12.535Z,66.05
2023-05-12T04:58:39.262Z,66.03
2023-05-12T05:01:09.654Z,65.87
2023-05-12T05:03:36.759Z,65.74
2023-05-12T05:06:04.002Z,66.10
2023-05-12T05:08:31.229Z,65.88
2023-05-12T05:11:00.061Z,65.58
2023-05-12T05:13:28.188Z,65.78
2023-05-12T05:15:57.630Z,65.48
2023-05-12T05:18:32.015Z,65.60
2023-05-12T05:20:59.306Z,65.63
2023-05-12T05:23:27.335Z,65.99
2023-05-12T05:25:54.810Z,66.04
2023-05-12T05:28:22.019Z,65.43
2023-05-12T05:30:48.712Z,65.00
2023-05-12T05:33:15.396Z,65.19
2023-05-12T05:35:42.604Z,65.36
2023-05-12T05:38:10.868Z,65.91
2023-05-12T05:40:52.262Z,65.57
2023-05-12T05:43:21.340Z,66.01
2023-05-12T05:45:50.072Z,65.61
2023-05-12T05:48:20.957Z,65.68
2023-05-12T05:50:48.268Z,65.55
2023-05-12T05:53:15.208Z,65.24
2023-05-12T05:55:42.910Z,65.11
2023-05-12T05:58:12.104Z,65.37
2023-05-12T06:00:41.570Z,65.15
2023-05-12T06:03:11.065Z,65.06
2023-05-12T06:05:37.974Z,65.00
2023-05-12T06:08:05.394Z,64.74
2023-05-12T06:10:34.948Z,64.39
2023-05-12T06:13:04.741Z,64.24
2023-05-12T06:15:35.468Z,64.13
2023-05-12T06:18:06.982Z,64.70
2023-05-12T06:20:36.413Z,64.69
2023-05-12T06:23:03.150Z,64.28
2023-05-12T06:25:29.778Z,64.58
2023-05-12T06:27:56.451Z,64.41
2023-05-12T06:30:23.496Z,63.80
2023-05-12T06:32:59.660Z,63.75
2023-05-12T06:35:27.706Z,64.05
2023-05-12T06:37:59.294Z,64.02
2023-05-12T06:40:26.029Z,63.81
2023-05-12T06:42:53.175Z,63.82
2023-05-12T06:45:23.874Z,63.86
2023-05-12T06:47:51.323Z,63.67
2023-05-12T06:50:20.853Z,63.60
2023-05-12T06:52:54.283Z,63.23
2023-05-12T06:55:21.183Z,63.61
2023-05-12T06:57:48.079Z,63.79
2023-05-12T07:00:15.205Z,63.48
2023-05-12T07:02:42.079Z,63.73
2023-05-12T07:05:10.997Z,63.34
2023-05-12T07:07:40.010Z,63.27
2023-05-12T07:10:10.079Z,62.98
2023-05-12T07:12:39.882Z,62.82
2023-05-12T07:15:06.944Z,63.26
2023-05-12T07:17:33.654Z,63.87
2023-05-12T07:20:05.817Z,63.72
2023-05-12T07:22:32.797Z,63.31
2023-05-12T07:24:59.932Z,63.35
2023-05-12T07:27:26.997Z,63.30
2023-05-12T07:29:56.097Z,62.85
2023-05-12T07:32:23.099Z,62.73
2023-05-12T07:34:53.566Z,62.92
2023-05-12T07:37:22.910Z,62.46
2023-05-12T07:39:49.894Z,62.17
2023-05-12T07:42:16.530Z,62.13
2023-05-12T07:44:43.123Z,61.59
2023-05-12T07:47:09.839Z,62.15
2023-05-12T07:49:36.528Z,60.87
2023-05-12T07:52:03.289Z,60.69
2023-05-12T07:54:30.150Z,60.63
2023-05-12T07:56:57.150Z,60.76
2023-05-12T07:59:24.115Z,61.03
2023-05-12T08:01:54.059Z,61.71
2023-05-12T08:04:22.632Z,61.45
2023-05-12T08:06:52.424Z,61.86
2023-05-12T08:09:19.139Z,62.10
2023-05-12T08:11:48.083Z,61.75
2023-05-12T08:14:19.014Z,61.23
2023-05-12T08:16:51.092Z,61.04
2023-05-12T08:19:18.053Z,60.48
2023-05-12T08:21:47.098Z,60.59
2023-05-12T08:24:13.762Z,60.42
2023-05-12T08:26:42.712Z,59.99
2023-05-12T08:29:12.153Z,59.93
2023-05-12T08:31:39.343Z,60.07
2023-05-12T08:34:11.158Z,60.58
2023-05-12T08:36:38.783Z,60.27
2023-05-12T08:39:05.649Z,60.14
2023-05-12T08:41:37.221Z,60.07
2023-05-12T08:44:03.859Z,59.25
2023-05-12T08:46:33.821Z,59.12
2023-05-12T08:49:02.142Z,58.72
2023-05-12T08:51:29.392Z,58.63
2023-05-12T08:53:56.282Z,57.57
2023-05-12T08:58:55.098Z,57.82
2023-05-12T09:01:24.025Z,58.24
2023-05-12T09:03:53.992Z,58.43
2023-05-12T09:06:23.109Z,57.76
2023-05-12T09:08:52.246Z,58.00
2023-05-12T09:11:18.878Z,58.03
2023-05-12T09:13:55.484Z,57.97
2023-05-12T09:16:23.802Z,58.33
2023-05-12T09:18:50.723Z,59.37
2023-05-12T09:21:17.729Z,59.17
2023-05-12T09:23:59.104Z,59.19
2023-05-12T09:26:26.894Z,59.33
2023-05-12T09:29:06.493Z,59.15
2023-05-12T09:31:36.211Z,59.25
2023-05-12T09:34:07.196Z,59.80
2023-05-12T09:36:34.474Z,59.97
2023-05-12T09:39:05.124Z,60.06
2023-05-12T09:41:37.083Z,60.47
2023-05-12T09:44:04.079Z,60.33
2023-05-12T09:46:31.076Z,60.86
2023-05-12T09:49:00.407Z,61.15
2023-05-12T09:51:27.145Z,61.27
2023-05-12T09:53:54.262Z,61.39
2023-05-12T09:56:21.351Z,61.73
2023-05-12T09:58:48.948Z,62.04
2023-05-12T10:01:22.799Z,61.43
2023-05-12T10:03:53.602Z,61.81
2023-05-12T10:06:30.507Z,61.72
2023-05-12T10:09:05.659Z,61.52
2023-05-12T10:11:32.419Z,61.61
2023-05-12T10:14:02.659Z,62.00
2023-05-12T10:16:31.856Z,62.27
2023-05-12T10:18:58.584Z,62.58
2023-05-12T10:21:26.526Z,62.99
2023-05-12T10:23:53.310Z,62.74
2023-05-12T10:26:22.189Z,62.82
2023-05-12T10:28:48.971Z,63.21
2023-05-12T10:31:16.142Z,63.32
2023-05-12T10:33:42.725Z,63.43
2023-05-12T10:36:19.377Z,63.31
2023-05-12T10:38:47.748Z,63.18
2023-05-12T10:41:14.383Z,63.55
2023-05-12T10:43:47.056Z,63.60
2023-05-12T10:46:21.002Z,63.12
2023-05-12T10:48:58.722Z,62.63
2023-05-12T10:51:28.564Z,62.79
2023-05-12T10:54:01.614Z,63.46
2023-05-12T10:56:29.563Z,63.36
2023-05-12T10:59:14.774Z,63.72
2023-05-12T11:02:05.549Z,63.77
2023-05-12T11:04:37.608Z,63.37
2023-05-12T11:07:08.347Z,63.84
2023-05-12T11:09:53.137Z,63.56
2023-05-12T11:12:24.559Z,63.41
2023-05-12T11:14:53.626Z,63.06
2023-05-12T11:17:20.433Z,62.96
2023-05-12T11:19:48.080Z,62.87
2023-05-12T11:22:19.904Z,63.46
2023-05-12T11:24:47.417Z,62.79
2023-05-12T11:27:15.034Z,62.47
2023-05-12T11:29:42.435Z,62.89
2023-05-12T11:32:12.734Z,62.59
2023-05-12T11:34:39.396Z,62.60
2023-05-12T11:37:06.731Z,62.70
2023-05-12T11:39:35.684Z,63.17
2023-05-12T11:42:13.625Z,63.25
2023-05-12T11:44:53.029Z,63.45
2023-05-12T11:47:20.089Z,63.13
2023-05-12T11:49:51.157Z,62.76
2023-05-12T11:52:19.576Z,63.49
2023-05-12T11:54:52.228Z,63.58
2023-05-12T11:57:26.804Z,63.40
2023-05-12T12:00:00.633Z,63.33
2023-05-12T12:02:30.165Z,63.77
2023-05-12T12:04:59.178Z,63.80
2023-05-12T12:07:32.059Z,63.40
2023-05-12T12:09:59.204Z,63.80
2023-05-12T12:12:25.860Z,63.93
2023-05-12T12:14:52.692Z,63.93
2023-05-12T12:17:30.315Z,63.82
2023-05-12T12:19:57.305Z,63.66
2023-05-12T12:22:26.275Z,64.18
2023-05-12T12:24:55.429Z,63.85
2023-05-12T12:27:25.230Z,63.83
2023-05-12T12:29:52.075Z,64.21
2023-05-12T12:32:18.668Z,64.32
2023-05-12T12:34:50.882Z,64.14
2023-05-12T12:37:20.106Z,63.99
2023-05-12T12:39:49.011Z,63.98
2023-05-12T12:42:15.823Z,64.15
2023-05-12T12:44:42.761Z,63.77
2023-05-12T12:47:09.594Z,63.92
2023-05-12T12:49:40.909Z,64.12
2023-05-12T12:52:08.729Z,64.12
2023-05-12T12:54:41.348Z,64.19
2023-05-12T12:57:10.977Z,64.93
2023-05-12T12:59:40.424Z,64.92
2023-05-12T13:02:09.277Z,65.20
2023-05-12T13:04:40.642Z,65.41
2023-05-12T13:07:10.906Z,64.94
2023-05-12T13:09:38.773Z,64.78
2023-05-12T13:12:08.417Z,64.99
2023-05-12T13:14:44.818Z,65.29
2023-05-12T13:17:11.523Z,65.37
2023-05-12T13:19:40.760Z,65.28
2023-05-12T13:22:12.457Z,65.24
2023-05-12T13:24:39.272Z,65.00
2023-05-12T13:27:11.588Z,64.92
2023-05-12T13:29:42.397Z,65.46
2023-05-12T13:32:09.110Z,65.33
2023-05-12T13:34:35.686Z,65.42
2023-05-12T13:37:02.315Z,65.52
2023-05-12T13:39:28.996Z,65.50
2023-05-12T13:41:58.254Z,65.05
2023-05-12T13:44:24.953Z,65.29
2023-05-12T13:46:52.704Z,65.17
2023-05-12T13:49:24.326Z,65.13
2023-05-12T13:51:53.090Z,65.24
2023-05-12T13:54:19.924Z,65.42
2023-05-12T13:56:49.010Z,65.39
2023-05-12T13:59:18.004Z,65.31
2023-05-12T14:01:47.203Z,65.53
2023-05-12T14:04:14.418Z,65.70
2023-05-12T14:06:41.017Z,65.38
2023-05-12T14:09:13.678Z,65.42
2023-05-12T14:11:43.034Z,65.56
2023-05-12T14:14:09.750Z,65.60
2023-05-12T14:16:41.672Z,66.16
2023-05-12T14:19:08.362Z,66.14
2023-05-12T14:21:34.975Z,66.14
2023-05-12T14:24:01.984Z,66.50
2023-05-12T14:26:28.646Z,66.42
2023-05-12T14:28:58.075Z,66.58
2023-05-12T14:31:27.456Z,66.73
2023-05-12T14:33:54.172Z,67.01
2023-05-12T14:36:20.899Z,66.98
2023-05-12T14:38:49.190Z,66.95
2023-05-12T14:41:16.292Z,67.06
2023-05-12T14:43:43.005Z,66.75
2023-05-12T14:46:12.073Z,67.10
2023-05-12T14:48:39.276Z,67.08
2023-05-12T14:51:10.657Z,67.42
2023-05-12T14:53:37.365Z,67.91
2023-05-12T14:56:04.044Z,67.84
2023-05-12T14:58:33.024Z,68.24
2023-05-12T15:01:02.065Z,68.14
2023-05-12T15:03:29.158Z,68.10
2023-05-12T15:06:05.701Z,68.31
2023-05-12T15:08:33.575Z,68.62
2023-05-12T15:11:00.229Z,68.58
2023-05-12T15:13:29.808Z,68.26
2023-05-12T15:15:57.090Z,68.40
2023-05-12T15:18:24.078Z,68.46
2023-05-12T15:20:50.897Z,68.44
2023-05-12T15:23:17.597Z,68.31
2023-05-12T15:25:46.537Z,68.67
2023-05-12T15:28:15.614Z,68.88
2023-05-12T15:30:42.266Z,68.92
2023-05-12T15:33:08.955Z,68.76
2023-05-12T15:35:40.796Z,69.09
2023-05-12T15:38:07.726Z,69.04
2023-05-12T15:40:34.619Z,68.78
2023-05-12T15:43:01.668Z,68.99
2023-05-12T15:45:28.313Z,68.95
2023-05-12T15:47:57.979Z,69.15
2023-05-12T15:50:24.694Z,69.47
2023-05-12T15:52:53.632Z,69.56
2023-05-12T15:55:22.757Z,69.49
2023-05-12T15:57:54.297Z,69.46
2023-05-12T16:00:22.685Z,69.42
2023-05-12T16:02:51.826Z,69.28
2023-05-12T16:05:21.424Z,69.00
2023-05-12T16:07:50.606Z,69.48
2023-05-12T16:10:21.242Z,69.76
2023-05-12T16:12:48.383Z,69.35
2023-05-12T16:15:15.001Z,69.44
2023-05-12T16:17:41.686Z,69.17
2023-05-12T16:20:13.123Z,69.34
2023-05-12T16:22:44.917Z,69.27
2023-05-12T16:25:11.582Z,69.26
2023-05-12T16:27:40.696Z,69.09
2023-05-12T16:30:09.683Z,68.89
2023-05-12T16:32:36.845Z,69.01
2023-05-12T16:35:04.082Z,68.83
2023-05-12T16:37:30.813Z,69.12
2023-05-12T16:39:57.579Z,69.24
2023-05-12T16:42:29.778Z,69.08
2023-05-12T16:44:56.398Z,68.92
2023-05-12T16:47:23.515Z,69.02
2023-05-12T16:49:57.774Z,69.17
2023-05-12T16:52:24.841Z,69.54
2023-05-12T16:54:51.927Z,69.67
2023-05-12T16:57:18.821Z,69.69
2023-05-12T16:59:48.262Z,69.71
2023-05-12T17:02:17.748Z,69.77
2023-05-12T17:04:44.812Z,69.92
2023-05-12T17:07:11.544Z,69.25
2023-05-12T17:09:38.162Z,69.80
2023-05-12T17:12:06.809Z,69.80
2023-05-12T17:14:34.987Z,70.01
2023-05-12T17:17:02.322Z,70.01
2023-05-12T17:19:29.154Z,70.06
2023-05-12T17:21:55.904Z,69.98
2023-05-12T17:24:24.954Z,70.27
2023-05-12T17:26:51.657Z,70.28
2023-05-12T17:29:18.352Z,70.28
2023-05-12T17:31:45.061Z,70.46
2023-05-12T17:34:11.765Z,70.15
2023-05-12T17:36:40.780Z,70.48
2023-05-12T17:39:07.532Z,70.18
2023-05-12T17:41:34.213Z,70.42
2023-05-12T17:44:03.321Z,70.24
2023-05-12T17:46:29.927Z,70.66
2023-05-12T17:48:59.438Z,70.47
2023-05-12T17:51:30.486Z,70.57
2023-05-12T17:53:57.087Z,70.77
2023-05-12T17:56:26.603Z,70.87
2023-05-12T17:58:56.270Z,71.21
2023-05-12T18:01:25.440Z,71.23
2023-05-12T18:03:54.538Z,71.13
2023-05-12T18:06:21.591Z,71.35
2023-05-12T18:08:48.595Z,71.49
2023-05-12T18:11:16.281Z,71.43
2023-05-12T18:13:42.930Z,71.41
2023-05-12T18:16:21.724Z,71.42
2023-05-12T18:18:54.843Z,71.48
2023-05-12T18:21:21.499Z,71.26
2023-05-12T18:23:48.106Z,71.78
2023-05-12T18:26:14.668Z,71.60
2023-05-12T18:28:43.599Z,71.70
2023-05-12T18:31:15.506Z,71.63
2023-05-12T18:33:43.528Z,71.69
2023-05-12T18:36:10.634Z,71.65
2023-05-12T18:38:40.242Z,71.65
2023-05-12T18:41:10.388Z,71.56
2023-05-12T18:43:39.500Z,71.84
2023-05-12T18:46:06.523Z,72.05
2023-05-12T18:48:33.192Z,72.21
2023-05-12T18:50:59.929Z,72.56
2023-05-12T18:53:26.574Z,72.65
2023-05-12T18:55:53.258Z,72.50
2023-05-12T18:58:19.971Z,72.47
2023-05-12T19:00:46.989Z,72.54
2023-05-12T19:03:14.023Z,72.71
2023-05-12T19:05:45.546Z,72.52
2023-05-12T19:08:12.859Z,72.52
2023-05-12T19:10:40.121Z,72.39
2023-05-12T19:13:08.530Z,72.46
2023-05-12T19:15:38.690Z,72.10
2023-05-12T19:18:05.685Z,72.52
2023-05-12T19:20:32.519Z,72.44
2023-05-12T19:23:02.727Z,72.31
2023-05-12T19:25:32.677Z,72.01
2023-05-12T19:27:59.598Z,72.12
2023-05-12T19:30:27.934Z,72.32
2023-05-12T19:32:59.422Z,72.47
2023-05-12T19:35:28.511Z,72.33
2023-05-12T19:37:55.226Z,72.23
2023-05-12T19:40:30.697Z,72.04
2023-05-12T19:42:57.612Z,72.29
2023-05-12T19:45:24.386Z,72.30
2023-05-12T19:47:52.206Z,72.23
2023-05-12T19:50:20.216Z,72.16
2023-05-12T19:52:46.881Z,72.24
2023-05-12T19:55:13.537Z,72.17
2023-05-12T19:57:40.488Z,72.36
2023-05-12T20:00:10.085Z,72.12
2023-05-12T20:02:40.018Z,72.28
2023-05-12T20:05:07.072Z,72.22
2023-05-12T20:07:34.210Z,72.54
2023-05-12T20:10:04.158Z,72.74
2023-05-12T20:12:30.905Z,72.36
2023-05-12T20:14:57.524Z,72.31
2023-05-12T20:17:24.204Z,72.26
2023-05-12T20:19:57.024Z,72.27
2023-05-12T20:22:23.938Z,71.97
2023-05-12T20:24:51.405Z,71.82
2023-05-12T20:27:20.615Z,72.02
2023-05-12T20:29:47.197Z,72.03
2023-05-12T20:32:16.394Z,72.04
2023-05-12T20:34:43.440Z,72.06
2023-05-12T20:37:10.451Z,72.28
2023-05-12T20:39:39.509Z,72.42
2023-05-12T20:42:06.447Z,71.89
2023-05-12T20:44:38.008Z,72.19
2023-05-12T20:47:04.767Z,72.04
2023-05-12T20:49:34.112Z,72.00
2023-05-12T20:52:00.751Z,72.14
2023-05-12T20:54:29.824Z,72.33
2023-05-12T20:56:56.422Z,72.32
2023-05-12T20:59:26.198Z,72.37
2023-05-12T21:01:52.896Z,72.41
2023-05-12T21:04:22.041Z,72.21
2023-05-12T21:06:53.353Z,72.29
2023-05-12T21:09:20.474Z,72.56
2023-05-12T21:11:47.287Z,72.59
2023-05-12T21:14:14.103Z,72.48
2023-05-12T21:16:45.909Z,72.40
2023-05-12T21:19:17.547Z,72.38
2023-05-12T21:21:44.229Z,72.33
2023-05-12T21:24:13.278Z,72.29
2023-05-12T21:26:40.096Z,72.54
2023-05-12T21:29:06.652Z,72.87
2023-05-12T21:31:33.326Z,72.56
2023-05-12T21:34:00.057Z,72.53
2023-05-12T21:36:27.054Z,72.38
2023-05-12T21:38:55.782Z,72.47
2023-05-12T21:41:22.539Z,72.75
2023-05-12T21:43:49.166Z,72.29
2023-05-12T21:46:18.264Z,72.28
2023-05-12T21:48:44.963Z,72.33
2023-05-12T21:51:14.174Z,72.34
2023-05-12T21:53:43.844Z,72.78
2023-05-12T21:56:10.485Z,72.87
2023-05-12T21:58:37.121Z,72.62
2023-05-12T22:01:06.297Z,72.98
2023-05-12T22:03:33.183Z,72.98
2023-05-12T22:05:59.824Z,72.85
2023-05-12T22:08:26.503Z,72.87
2023-05-12T22:10:53.080Z,72.79
2023-05-12T22:13:20.261Z,72.98
2023-05-12T22:15:46.951Z,73.04
2023-05-12T22:18:13.970Z,73.18
2023-05-12T22:20:41.250Z,72.96
2023-05-12T22:23:07.955Z,72.97
2023-05-12T22:25:34.558Z,73.03
2023-05-12T22:28:04.860Z,73.21
2023-05-12T22:30:33.346Z,73.19
2023-05-12T22:33:02.440Z,73.08
2023-05-12T22:35:29.394Z,73.30
2023-05-12T22:37:56.079Z,73.31
2023-05-12T22:40:27.011Z,73.30
2023-05-12T22:42:55.952Z,73.37
2023-05-12T22:45:22.530Z,73.70
2023-05-12T22:47:51.647Z,73.19
2023-05-12T22:50:18.842Z,73.26
2023-05-12T22:52:46.443Z,72.83
2023-05-12T22:55:15.533Z,73.11
2023-05-12T22:57:43.878Z,73.06
2023-05-12T23:00:13.345Z,72.90
2023-05-12T23:02:40.363Z,72.80
2023-05-12T23:05:07.474Z,72.89
2023-05-12T23:07:33.995Z,72.89
2023-05-12T23:10:03.873Z,72.68
2023-05-12T23:12:30.601Z,72.87
2023-05-12T23:14:57.198Z,73.14
2023-05-12T23:17:26.290Z,73.10
2023-05-12T23:19:53.538Z,73.05
2023-05-12T23:22:20.365Z,73.07
2023-05-12T23:24:47.268Z,73.15
2023-05-12T23:27:13.940Z,73.15
2023-05-12T23:29:40.533Z,72.96
2023-05-12T23:32:07.308Z,73.07
2023-05-12T23:34:40.194Z,73.02
2023-05-12T23:37:07.330Z,72.88
2023-05-12T23:39:33.991Z,72.88
2023-05-12T23:42:01.227Z,72.77
2023-05-12T23:44:27.995Z,72.59
2023-05-12T23:46:56.896Z,72.92
2023-05-12T23:49:23.634Z,72.86
2023-05-12T23:51:50.268Z,73.02
2023-05-12T23:54:16.880Z,72.85
2023-05-12T23:56:44.023Z,72.91
2023-05-12T23:59:10.714Z,72.88
